sensor_id;sensor_type;location;lat;lon;timestamp;pressure;altitude;pressure_sealevel;temperature;humidity
30081;BME280;16902;50.816;12.828;2022-11-04T00:02:08;96549.44;;;6.48;100.00
30081;BME280;16902;50.816;12.828;2022-11-04T00:07:09;96565.25;;;6.60;100.00
30081;BME280;16902;50.816;12.828;2022-11-04T00:12:33;96556.59;;;6.67;100.00
30081;BME280;16902;50.816;12.828;2022-11-04T00:17:35;96554.94;;;6.66;100.00
30081;BME280;16902;50.816;12.828;2022-11-04T00:22:38;96552.19;;;6.68;100.00
30081;BME280;16902;50.816;12.828;2022-11-04T00:28:09;96554.47;;;6.78;100.00
30081;BME280;16902;50.816;12.828;2022-11-04T00:33:30;96553.69;;;6.77;100.00
30081;BME280;16902;50.816;12.828;2022-11-04T00:38:32;96550.72;;;6.80;100.00
30081;BME280;16902;50.816;12.828;2022-11-04T00:43:34;96544.22;;;6.91;100.00
30081;BME280;16902;50.816;12.828;2022-11-04T00:48:36;96539.06;;;6.91;100.00
30081;BME280;16902;50.816;12.828;2022-11-04T00:53:37;96553.69;;;7.05;100.00
30081;BME280;16902;50.816;12.828;2022-11-04T00:58:39;96556.59;;;7.17;100.00
30081;BME280;16902;50.816;12.828;2022-11-04T01:03:41;96570.13;;;7.40;100.00
30081;BME280;16902;50.816;12.828;2022-11-04T01:08:44;96570.47;;;7.37;100.00
30081;BME280;16902;50.816;12.828;2022-11-04T01:13:49;96593.03;;;7.43;100.00
30081;BME280;16902;50.816;12.828;2022-11-04T01:18:50;96565.66;;;7.34;100.00
30081;BME280;16902;50.816;12.828;2022-11-04T01:23:52;96545.84;;;7.20;100.00
30081;BME280;16902;50.816;12.828;2022-11-04T01:28:55;96517.94;;;7.15;100.00
30081;BME280;16902;50.816;12.828;2022-11-04T01:33:58;96640.19;;;7.60;100.00
30081;BME280;16902;50.816;12.828;2022-11-04T01:38:59;96612.56;;;8.09;100.00
30081;BME280;16902;50.816;12.828;2022-11-04T01:44:44;96608.22;;;8.64;100.00
30081;BME280;16902;50.816;12.828;2022-11-04T01:49:36;96596.88;;;8.71;100.00
30081;BME280;16902;50.816;12.828;2022-11-04T01:54:45;96620.22;;;8.78;100.00
30081;BME280;16902;50.816;12.828;2022-11-04T01:59:48;96627.38;;;8.63;100.00
30081;BME280;16902;50.816;12.828;2022-11-04T02:04:50;96633.19;;;8.71;100.00
30081;BME280;16902;50.816;12.828;2022-11-04T02:09:52;96639.44;;;8.90;100.00
30081;BME280;16902;50.816;12.828;2022-11-04T02:14:54;96627.63;;;8.94;100.00
30081;BME280;16902;50.816;12.828;2022-11-04T02:25:55;96618.84;;;8.75;100.00
30081;BME280;16902;50.816;12.828;2022-11-04T02:31:17;96624.41;;;8.66;100.00
30081;BME280;16902;50.816;12.828;2022-11-04T02:41:55;96628.69;;;8.45;100.00
30081;BME280;16902;50.816;12.828;2022-11-04T02:47:03;96620.31;;;8.43;100.00
30081;BME280;16902;50.816;12.828;2022-11-04T02:52:13;96638.28;;;8.45;100.00
30081;BME280;16902;50.816;12.828;2022-11-04T02:57:21;96637.25;;;8.39;100.00
30081;BME280;16902;50.816;12.828;2022-11-04T03:02:28;96631.63;;;8.36;100.00
30081;BME280;16902;50.816;12.828;2022-11-04T03:07:34;96646.38;;;8.35;100.00
30081;BME280;16902;50.816;12.828;2022-11-04T03:12:43;96636.81;;;8.36;100.00
30081;BME280;16902;50.816;12.828;2022-11-04T03:17:57;96639.59;;;8.34;100.00
30081;BME280;16902;50.816;12.828;2022-11-04T03:23:03;96630.22;;;8.33;100.00
30081;BME280;16902;50.816;12.828;2022-11-04T03:38:39;96641.44;;;8.40;100.00
30081;BME280;16902;50.816;12.828;2022-11-04T03:43:41;96648.84;;;8.37;100.00
30081;BME280;16902;50.816;12.828;2022-11-04T03:48:43;96650.66;;;8.43;100.00
30081;BME280;16902;50.816;12.828;2022-11-04T03:53:47;96658.22;;;8.38;100.00
30081;BME280;16902;50.816;12.828;2022-11-04T04:04:28;96676.72;;;8.35;100.00
30081;BME280;16902;50.816;12.828;2022-11-04T04:09:41;96682.00;;;8.48;100.00
30081;BME280;16902;50.816;12.828;2022-11-04T04:14:49;96698.34;;;8.48;100.00
30081;BME280;16902;50.816;12.828;2022-11-04T04:19:55;96699.53;;;8.46;100.00
30081;BME280;16902;50.816;12.828;2022-11-04T04:25:00;96703.19;;;8.58;100.00
30081;BME280;16902;50.816;12.828;2022-11-04T04:30:23;96713.38;;;8.60;100.00
30081;BME280;16902;50.816;12.828;2022-11-04T04:35:27;96709.19;;;8.65;100.00
30081;BME280;16902;50.816;12.828;2022-11-04T04:40:49;96712.28;;;8.82;100.00
30081;BME280;16902;50.816;12.828;2022-11-04T04:46:11;96710.31;;;8.97;100.00
30081;BME280;16902;50.816;12.828;2022-11-04T04:51:14;96713.75;;;9.05;100.00
30081;BME280;16902;50.816;12.828;2022-11-04T04:56:16;96717.38;;;9.17;100.00
30081;BME280;16902;50.816;12.828;2022-11-04T05:01:18;96715.38;;;9.19;100.00
30081;BME280;16902;50.816;12.828;2022-11-04T05:06:20;96713.59;;;9.19;100.00
30081;BME280;16902;50.816;12.828;2022-11-04T05:11:22;96714.56;;;9.18;100.00
30081;BME280;16902;50.816;12.828;2022-11-04T05:16:28;96709.19;;;9.20;100.00
30081;BME280;16902;50.816;12.828;2022-11-04T05:21:30;96701.19;;;9.15;100.00
30081;BME280;16902;50.816;12.828;2022-11-04T05:26:31;96719.16;;;9.10;100.00
30081;BME280;16902;50.816;12.828;2022-11-04T05:31:33;96708.75;;;9.03;100.00
30081;BME280;16902;50.816;12.828;2022-11-04T05:36:35;96705.13;;;8.91;100.00
30081;BME280;16902;50.816;12.828;2022-11-04T05:41:37;96713.66;;;8.85;100.00
30081;BME280;16902;50.816;12.828;2022-11-04T05:46:39;96712.47;;;8.81;100.00
30081;BME280;16902;50.816;12.828;2022-11-04T05:51:41;96714.06;;;8.82;100.00
30081;BME280;16902;50.816;12.828;2022-11-04T05:56:43;96716.22;;;8.71;100.00
30081;BME280;16902;50.816;12.828;2022-11-04T06:01:45;96711.84;;;8.72;100.00
30081;BME280;16902;50.816;12.828;2022-11-04T06:06:47;96715.22;;;8.72;100.00
30081;BME280;16902;50.816;12.828;2022-11-04T06:11:49;96704.00;;;8.65;100.00
30081;BME280;16902;50.816;12.828;2022-11-04T06:16:51;96706.59;;;8.59;100.00
30081;BME280;16902;50.816;12.828;2022-11-04T06:21:53;96707.78;;;8.56;100.00
30081;BME280;16902;50.816;12.828;2022-11-04T06:26:55;96707.16;;;8.54;100.00
30081;BME280;16902;50.816;12.828;2022-11-04T06:31:56;96696.22;;;8.65;100.00
30081;BME280;16902;50.816;12.828;2022-11-04T06:36:58;96698.44;;;8.68;100.00
30081;BME280;16902;50.816;12.828;2022-11-04T06:42:00;96705.84;;;8.71;100.00
30081;BME280;16902;50.816;12.828;2022-11-04T06:47:03;96718.69;;;8.86;100.00
30081;BME280;16902;50.816;12.828;2022-11-04T06:52:05;96720.84;;;8.83;100.00
30081;BME280;16902;50.816;12.828;2022-11-04T06:57:09;96727.47;;;8.85;100.00
30081;BME280;16902;50.816;12.828;2022-11-04T07:02:12;96740.50;;;9.05;100.00
30081;BME280;16902;50.816;12.828;2022-11-04T07:07:14;96745.72;;;9.05;100.00
30081;BME280;16902;50.816;12.828;2022-11-04T07:12:16;96743.50;;;9.02;100.00
30081;BME280;16902;50.816;12.828;2022-11-04T07:17:18;96734.13;;;9.08;100.00
30081;BME280;16902;50.816;12.828;2022-11-04T07:22:19;96725.31;;;9.02;100.00
30081;BME280;16902;50.816;12.828;2022-11-04T07:27:21;96746.06;;;8.95;100.00
30081;BME280;16902;50.816;12.828;2022-11-04T07:32:23;96748.31;;;9.05;100.00
30081;BME280;16902;50.816;12.828;2022-11-04T07:37:25;96753.50;;;9.05;100.00
30081;BME280;16902;50.816;12.828;2022-11-04T07:42:27;96752.69;;;9.05;100.00
30081;BME280;16902;50.816;12.828;2022-11-04T07:47:30;96752.13;;;9.09;100.00
30081;BME280;16902;50.816;12.828;2022-11-04T07:52:32;96756.53;;;9.22;100.00
30081;BME280;16902;50.816;12.828;2022-11-04T07:57:35;96743.16;;;9.32;100.00
30081;BME280;16902;50.816;12.828;2022-11-04T08:02:36;96730.22;;;9.38;100.00
30081;BME280;16902;50.816;12.828;2022-11-04T08:07:39;96732.22;;;9.49;100.00
30081;BME280;16902;50.816;12.828;2022-11-04T08:12:41;96741.63;;;9.64;100.00
30081;BME280;16902;50.816;12.828;2022-11-04T08:17:43;96743.63;;;9.62;100.00
30081;BME280;16902;50.816;12.828;2022-11-04T08:22:44;96738.63;;;9.53;100.00
30081;BME280;16902;50.816;12.828;2022-11-04T08:27:46;96742.81;;;9.61;100.00
30081;BME280;16902;50.816;12.828;2022-11-04T08:32:49;96734.63;;;9.64;100.00
30081;BME280;16902;50.816;12.828;2022-11-04T08:37:50;96731.63;;;9.54;100.00
30081;BME280;16902;50.816;12.828;2022-11-04T08:42:53;96730.59;;;9.29;100.00
30081;BME280;16902;50.816;12.828;2022-11-04T08:47:55;96703.19;;;9.19;100.00
30081;BME280;16902;50.816;12.828;2022-11-04T08:53:05;96711.97;;;9.18;100.00
30081;BME280;16902;50.816;12.828;2022-11-04T08:58:07;96712.38;;;9.15;100.00
30081;BME280;16902;50.816;12.828;2022-11-04T09:03:10;96732.31;;;9.08;100.00
30081;BME280;16902;50.816;12.828;2022-11-04T09:08:14;96743.31;;;9.10;100.00
30081;BME280;16902;50.816;12.828;2022-11-04T09:13:17;96738.09;;;8.97;100.00
30081;BME280;16902;50.816;12.828;2022-11-04T09:18:19;96736.91;;;8.99;100.00
30081;BME280;16902;50.816;12.828;2022-11-04T09:23:20;96726.03;;;8.83;100.00
30081;BME280;16902;50.816;12.828;2022-11-04T09:28:23;96729.66;;;8.88;100.00
30081;BME280;16902;50.816;12.828;2022-11-04T09:33:25;96736.06;;;8.92;100.00
30081;BME280;16902;50.816;12.828;2022-11-04T09:38:27;96754.66;;;8.96;100.00
30081;BME280;16902;50.816;12.828;2022-11-04T09:43:51;96769.81;;;8.92;100.00
30081;BME280;16902;50.816;12.828;2022-11-04T09:48:55;96769.44;;;8.95;100.00
30081;BME280;16902;50.816;12.828;2022-11-04T09:54:02;96790.38;;;8.94;100.00
30081;BME280;16902;50.816;12.828;2022-11-04T09:59:11;96810.13;;;8.88;100.00
30081;BME280;16902;50.816;12.828;2022-11-04T10:15:00;96829.59;;;8.71;100.00
30081;BME280;16902;50.816;12.828;2022-11-04T10:25:45;96817.78;;;8.62;100.00
30081;BME280;16902;50.816;12.828;2022-11-04T10:30:50;96825.50;;;8.55;100.00
30081;BME280;16902;50.816;12.828;2022-11-04T10:35:55;96841.44;;;8.52;100.00
30081;BME280;16902;50.816;12.828;2022-11-04T10:40:59;96843.50;;;8.63;100.00
30081;BME280;16902;50.816;12.828;2022-11-04T10:51:38;96835.22;;;8.46;100.00
30081;BME280;16902;50.816;12.828;2022-11-04T10:56:43;96824.66;;;8.48;100.00
30081;BME280;16902;50.816;12.828;2022-11-04T11:01:53;96831.09;;;8.59;100.00
30081;BME280;16902;50.816;12.828;2022-11-04T11:06:58;96832.44;;;8.76;100.00
30081;BME280;16902;50.816;12.828;2022-11-04T11:12:05;96836.25;;;8.80;100.00
30081;BME280;16902;50.816;12.828;2022-11-04T11:17:38;96833.25;;;8.83;100.00
30081;BME280;16902;50.816;12.828;2022-11-04T11:22:47;96829.28;;;8.87;100.00
30081;BME280;16902;50.816;12.828;2022-11-04T11:33:23;96825.41;;;9.11;100.00
30081;BME280;16902;50.816;12.828;2022-11-04T11:38:30;96828.00;;;9.11;100.00
30081;BME280;16902;50.816;12.828;2022-11-04T11:43:35;96831.56;;;9.04;100.00
30081;BME280;16902;50.816;12.828;2022-11-04T11:48:39;96842.25;;;8.87;100.00
30081;BME280;16902;50.816;12.828;2022-11-04T11:59:14;96816.31;;;8.87;100.00
30081;BME280;16902;50.816;12.828;2022-11-04T12:04:39;96815.66;;;8.79;100.00
30081;BME280;16902;50.816;12.828;2022-11-04T12:10:10;96811.88;;;8.81;100.00
30081;BME280;16902;50.816;12.828;2022-11-04T12:15:40;96806.88;;;8.80;100.00
30081;BME280;16902;50.816;12.828;2022-11-04T12:20:52;96822.06;;;8.83;100.00
30081;BME280;16902;50.816;12.828;2022-11-04T12:42:24;96789.56;;;8.93;100.00
30081;BME280;16902;50.816;12.828;2022-11-04T12:47:40;96802.19;;;8.96;100.00
30081;BME280;16902;50.816;12.828;2022-11-04T13:03:19;96807.88;;;9.20;100.00
30081;BME280;16902;50.816;12.828;2022-11-04T13:08:39;96801.09;;;9.32;100.00
30081;BME280;16902;50.816;12.828;2022-11-04T13:13:43;96797.53;;;9.40;100.00
30081;BME280;16902;50.816;12.828;2022-11-04T13:18:45;96796.38;;;9.56;100.00
30081;BME280;16902;50.816;12.828;2022-11-04T13:24:00;96804.59;;;9.66;100.00
30081;BME280;16902;50.816;12.828;2022-11-04T13:29:08;96816.63;;;9.80;100.00
30081;BME280;16902;50.816;12.828;2022-11-04T13:34:30;96836.22;;;9.89;100.00
30081;BME280;16902;50.816;12.828;2022-11-04T13:39:44;96829.19;;;9.76;100.00
30081;BME280;16902;50.816;12.828;2022-11-04T13:44:50;96836.56;;;9.60;100.00
30081;BME280;16902;50.816;12.828;2022-11-04T13:49:54;96837.56;;;9.59;100.00
30081;BME280;16902;50.816;12.828;2022-11-04T14:00:18;96839.03;;;9.20;100.00
30081;BME280;16902;50.816;12.828;2022-11-04T14:16:09;96850.38;;;8.71;100.00
30081;BME280;16902;50.816;12.828;2022-11-04T14:21:13;96859.09;;;8.63;100.00
30081;BME280;16902;50.816;12.828;2022-11-04T14:26:26;96870.66;;;8.61;100.00
30081;BME280;16902;50.816;12.828;2022-11-04T14:31:40;96864.94;;;8.44;100.00
30081;BME280;16902;50.816;12.828;2022-11-04T14:36:43;96871.41;;;8.33;100.00
30081;BME280;16902;50.816;12.828;2022-11-04T14:41:56;96877.59;;;8.32;100.00
30081;BME280;16902;50.816;12.828;2022-11-04T14:52:27;96897.03;;;8.00;100.00
30081;BME280;16902;50.816;12.828;2022-11-04T14:57:36;96895.53;;;7.91;100.00
30081;BME280;16902;50.816;12.828;2022-11-04T15:02:38;96894.69;;;7.84;100.00
30081;BME280;16902;50.816;12.828;2022-11-04T15:07:40;96906.94;;;7.75;100.00
30081;BME280;16902;50.816;12.828;2022-11-04T15:12:43;96911.41;;;7.66;100.00
30081;BME280;16902;50.816;12.828;2022-11-04T15:17:51;96912.16;;;7.60;100.00
30081;BME280;16902;50.816;12.828;2022-11-04T15:22:54;96915.88;;;7.58;100.00
30081;BME280;16902;50.816;12.828;2022-11-04T15:27:56;96922.13;;;7.63;100.00
30081;BME280;16902;50.816;12.828;2022-11-04T15:33:01;96925.53;;;7.64;100.00
30081;BME280;16902;50.816;12.828;2022-11-04T15:38:03;96932.94;;;7.67;100.00
30081;BME280;16902;50.816;12.828;2022-11-04T15:43:05;96937.31;;;7.66;100.00
30081;BME280;16902;50.816;12.828;2022-11-04T15:53:23;96956.34;;;7.59;100.00
30081;BME280;16902;50.816;12.828;2022-11-04T15:58:25;96953.50;;;7.54;100.00
30081;BME280;16902;50.816;12.828;2022-11-04T16:03:28;96962.91;;;7.55;100.00
30081;BME280;16902;50.816;12.828;2022-11-04T16:08:30;96955.47;;;7.52;100.00
30081;BME280;16902;50.816;12.828;2022-11-04T16:13:32;96964.38;;;7.49;100.00
30081;BME280;16902;50.816;12.828;2022-11-04T16:18:42;96957.78;;;7.46;100.00
30081;BME280;16902;50.816;12.828;2022-11-04T16:23:48;96964.56;;;7.47;100.00
30081;BME280;16902;50.816;12.828;2022-11-04T16:28:53;96977.06;;;7.44;100.00
30081;BME280;16902;50.816;12.828;2022-11-04T16:33:55;96977.59;;;7.39;100.00
30081;BME280;16902;50.816;12.828;2022-11-04T16:38:59;96976.91;;;7.45;100.00
30081;BME280;16902;50.816;12.828;2022-11-04T16:44:04;96987.97;;;7.39;100.00
30081;BME280;16902;50.816;12.828;2022-11-04T16:49:06;96987.34;;;7.37;100.00
30081;BME280;16902;50.816;12.828;2022-11-04T16:54:08;96984.31;;;7.34;100.00
30081;BME280;16902;50.816;12.828;2022-11-04T16:59:10;96999.03;;;7.33;100.00
30081;BME280;16902;50.816;12.828;2022-11-04T17:04:12;96996.25;;;7.35;100.00
30081;BME280;16902;50.816;12.828;2022-11-04T17:09:21;96999.03;;;7.33;100.00
30081;BME280;16902;50.816;12.828;2022-11-04T17:14:23;96985.47;;;7.31;100.00
30081;BME280;16902;50.816;12.828;2022-11-04T17:19:25;97000.91;;;7.25;100.00
30081;BME280;16902;50.816;12.828;2022-11-04T17:24:34;96998.31;;;7.25;100.00
30081;BME280;16902;50.816;12.828;2022-11-04T17:29:36;96993.94;;;7.25;100.00
30081;BME280;16902;50.816;12.828;2022-11-04T17:34:38;96993.31;;;7.23;100.00
30081;BME280;16902;50.816;12.828;2022-11-04T17:39:41;97010.19;;;7.19;100.00
30081;BME280;16902;50.816;12.828;2022-11-04T17:44:42;97003.06;;;7.21;100.00
30081;BME280;16902;50.816;12.828;2022-11-04T17:49:44;97004.84;;;7.20;100.00
30081;BME280;16902;50.816;12.828;2022-11-04T17:54:46;97016.16;;;7.19;100.00
30081;BME280;16902;50.816;12.828;2022-11-04T17:59:48;97003.41;;;7.18;100.00
30081;BME280;16902;50.816;12.828;2022-11-04T18:04:50;97007.78;;;7.17;100.00
30081;BME280;16902;50.816;12.828;2022-11-04T18:09:51;97015.03;;;7.22;100.00
30081;BME280;16902;50.816;12.828;2022-11-04T18:14:53;97013.75;;;7.18;100.00
30081;BME280;16902;50.816;12.828;2022-11-04T18:19:55;97011.97;;;7.18;100.00
30081;BME280;16902;50.816;12.828;2022-11-04T18:24:57;97014.75;;;7.17;100.00
30081;BME280;16902;50.816;12.828;2022-11-04T18:29:59;97013.94;;;7.16;100.00
30081;BME280;16902;50.816;12.828;2022-11-04T18:35:01;97008.59;;;7.18;100.00
30081;BME280;16902;50.816;12.828;2022-11-04T18:40:03;97020.91;;;7.16;100.00
30081;BME280;16902;50.816;12.828;2022-11-04T18:45:05;97019.28;;;7.15;100.00
30081;BME280;16902;50.816;12.828;2022-11-04T18:50:07;97015.53;;;7.17;100.00
30081;BME280;16902;50.816;12.828;2022-11-04T18:55:09;97019.28;;;7.15;100.00
30081;BME280;16902;50.816;12.828;2022-11-04T19:00:11;97022.78;;;7.22;100.00
30081;BME280;16902;50.816;12.828;2022-11-04T19:05:17;97026.09;;;7.31;100.00
30081;BME280;16902;50.816;12.828;2022-11-04T19:10:19;97030.63;;;7.29;100.00
30081;BME280;16902;50.816;12.828;2022-11-04T19:15:21;97036.19;;;7.26;100.00
30081;BME280;16902;50.816;12.828;2022-11-04T19:20:23;97045.72;;;7.25;100.00
30081;BME280;16902;50.816;12.828;2022-11-04T19:25:25;97049.94;;;7.26;100.00
30081;BME280;16902;50.816;12.828;2022-11-04T19:30:26;97058.22;;;7.21;100.00
30081;BME280;16902;50.816;12.828;2022-11-04T19:35:28;97059.66;;;7.24;100.00
30081;BME280;16902;50.816;12.828;2022-11-04T19:40:32;97069.94;;;7.32;100.00
30081;BME280;16902;50.816;12.828;2022-11-04T19:45:37;97076.09;;;7.31;100.00
30081;BME280;16902;50.816;12.828;2022-11-04T19:50:41;97077.88;;;7.31;100.00
30081;BME280;16902;50.816;12.828;2022-11-04T19:55:52;97082.16;;;7.38;100.00
30081;BME280;16902;50.816;12.828;2022-11-04T20:00:54;97093.59;;;7.44;100.00
30081;BME280;16902;50.816;12.828;2022-11-04T20:05:55;97096.72;;;7.39;100.00
30081;BME280;16902;50.816;12.828;2022-11-04T20:11:03;97108.25;;;7.37;100.00
30081;BME280;16902;50.816;12.828;2022-11-04T20:16:29;97127.53;;;7.34;100.00
30081;BME280;16902;50.816;12.828;2022-11-04T20:21:33;97129.50;;;7.32;100.00
30081;BME280;16902;50.816;12.828;2022-11-04T20:26:36;97132.03;;;7.40;100.00
30081;BME280;16902;50.816;12.828;2022-11-04T20:31:38;97129.63;;;7.54;100.00
30081;BME280;16902;50.816;12.828;2022-11-04T20:36:41;97141.97;;;7.66;100.00
30081;BME280;16902;50.816;12.828;2022-11-04T20:41:44;97141.69;;;7.61;100.00
30081;BME280;16902;50.816;12.828;2022-11-04T20:46:46;97164.00;;;7.47;100.00
30081;BME280;16902;50.816;12.828;2022-11-04T20:51:48;97156.69;;;7.51;100.00
30081;BME280;16902;50.816;12.828;2022-11-04T20:56:55;97158.53;;;7.42;100.00
30081;BME280;16902;50.816;12.828;2022-11-04T21:01:57;97167.00;;;7.36;100.00
30081;BME280;16902;50.816;12.828;2022-11-04T21:07:00;97161.31;;;7.41;100.00
30081;BME280;16902;50.816;12.828;2022-11-04T21:12:03;97176.31;;;7.45;100.00
30081;BME280;16902;50.816;12.828;2022-11-04T21:17:05;97172.66;;;7.40;100.00
30081;BME280;16902;50.816;12.828;2022-11-04T21:22:07;97177.84;;;7.40;100.00
30081;BME280;16902;50.816;12.828;2022-11-04T21:27:09;97186.28;;;7.34;100.00
30081;BME280;16902;50.816;12.828;2022-11-04T21:32:10;97189.66;;;7.34;100.00
30081;BME280;16902;50.816;12.828;2022-11-04T21:37:12;97202.03;;;7.24;100.00
30081;BME280;16902;50.816;12.828;2022-11-04T21:42:14;97207.63;;;7.13;100.00
30081;BME280;16902;50.816;12.828;2022-11-04T21:47:16;97204.34;;;7.19;100.00
30081;BME280;16902;50.816;12.828;2022-11-04T21:52:17;97219.34;;;7.24;100.00
30081;BME280;16902;50.816;12.828;2022-11-04T21:57:19;97218.22;;;7.26;100.00
30081;BME280;16902;50.816;12.828;2022-11-04T22:02:21;97217.94;;;7.21;100.00
30081;BME280;16902;50.816;12.828;2022-11-04T22:07:23;97219.53;;;7.22;100.00
30081;BME280;16902;50.816;12.828;2022-11-04T22:12:44;97214.53;;;7.20;100.00
30081;BME280;16902;50.816;12.828;2022-11-04T22:17:51;97225.69;;;7.21;100.00
30081;BME280;16902;50.816;12.828;2022-11-04T22:22:53;97231.22;;;7.18;100.00
30081;BME280;16902;50.816;12.828;2022-11-04T22:27:55;97222.16;;;7.14;100.00
30081;BME280;16902;50.816;12.828;2022-11-04T22:32:57;97226.44;;;7.07;100.00
30081;BME280;16902;50.816;12.828;2022-11-04T22:37:58;97229.75;;;6.92;100.00
30081;BME280;16902;50.816;12.828;2022-11-04T22:43:00;97235.56;;;6.86;100.00
30081;BME280;16902;50.816;12.828;2022-11-04T22:48:02;97225.00;;;6.65;100.00
30081;BME280;16902;50.816;12.828;2022-11-04T22:53:04;97225.06;;;6.49;100.00
30081;BME280;16902;50.816;12.828;2022-11-04T22:58:06;97234.44;;;6.41;100.00
30081;BME280;16902;50.816;12.828;2022-11-04T23:03:07;97238.31;;;6.46;100.00
30081;BME280;16902;50.816;12.828;2022-11-04T23:08:10;97236.81;;;6.67;100.00
30081;BME280;16902;50.816;12.828;2022-11-04T23:13:12;97246.13;;;6.77;100.00
30081;BME280;16902;50.816;12.828;2022-11-04T23:18:33;97256.47;;;6.77;100.00
30081;BME280;16902;50.816;12.828;2022-11-04T23:23:44;97252.94;;;6.69;100.00
30081;BME280;16902;50.816;12.828;2022-11-04T23:29:04;97255.72;;;6.68;100.00
30081;BME280;16902;50.816;12.828;2022-11-04T23:34:25;97265.56;;;6.73;100.00
30081;BME280;16902;50.816;12.828;2022-11-04T23:39:47;97264.41;;;6.75;100.00
30081;BME280;16902;50.816;12.828;2022-11-04T23:44:51;97277.69;;;6.72;100.00
30081;BME280;16902;50.816;12.828;2022-11-04T23:50:12;97274.44;;;6.70;100.00
30081;BME280;16902;50.816;12.828;2022-11-04T23:55:32;97272.84;;;6.69;100.00
